createdAt,value
2023-03-21T00:00:43.811Z,4.45
2023-03-21T00:01:46.153Z,4.45
2023-03-21T00:02:50.047Z,4.43
2023-03-21T00:03:54.379Z,4.44
2023-03-21T00:05:05.878Z,4.45
2023-03-21T00:06:07.497Z,4.45
2023-03-21T00:07:10.679Z,4.41
2023-03-21T00:08:18.489Z,4.42
2023-03-21T00:09:21.979Z,4.39
2023-03-21T00:10:39.067Z,4.36
2023-03-21T00:11:30.941Z,4.38
2023-03-21T00:12:36.254Z,4.33
2023-03-21T00:13:42.782Z,4.35
2023-03-21T00:14:47.773Z,4.32
2023-03-21T00:16:03.982Z,4.29
2023-03-21T00:16:56.780Z,4.32
2023-03-21T00:18:03.382Z,4.28
2023-03-21T00:19:07.420Z,4.26
2023-03-21T00:20:12.694Z,4.20
2023-03-21T00:21:39.529Z,4.17
2023-03-21T00:22:21.793Z,4.14
2023-03-21T00:23:25.924Z,4.15
2023-03-21T00:24:29.535Z,4.12
2023-03-21T00:25:33.676Z,4.11
2023-03-21T00:26:37.580Z,4.11
2023-03-21T00:28:01.052Z,4.11
2023-03-21T00:28:47.001Z,4.11
2023-03-21T00:29:50.402Z,4.11
2023-03-21T00:31:00.711Z,4.10
2023-03-21T00:32:03.573Z,4.02
2023-03-21T00:33:21.747Z,4.00
2023-03-21T00:34:17.659Z,3.94
2023-03-21T00:35:53.549Z,3.94
2023-03-21T00:36:26.483Z,3.98
2023-03-21T00:37:29.881Z,3.97
2023-03-21T00:38:33.499Z,4.00
2023-03-21T00:39:36.164Z,3.97
2023-03-21T00:40:48.651Z,3.94
2023-03-21T00:41:47.590Z,3.92
2023-03-21T00:42:51.277Z,3.96
2023-03-21T00:43:55.069Z,3.95
2023-03-21T00:45:01.443Z,3.97
2023-03-21T00:46:06.291Z,4.00
2023-03-21T00:47:11.291Z,4.01
2023-03-21T00:48:17.576Z,4.01
2023-03-21T00:49:20.694Z,4.00
2023-03-21T00:50:24.412Z,3.95
2023-03-21T00:51:27.866Z,3.89
2023-03-21T00:52:40.558Z,3.92
2023-03-21T00:53:36.576Z,3.88
2023-03-21T00:54:40.574Z,3.80
2023-03-21T00:55:46.794Z,3.87
2023-03-21T00:56:51.492Z,3.87
2023-03-21T00:58:01.691Z,3.86
2023-03-21T00:59:00.787Z,3.88
2023-03-21T01:00:06.386Z,3.89
2023-03-21T01:01:08.952Z,3.95
2023-03-21T01:02:15.319Z,4.00
2023-03-21T01:03:25.275Z,4.03
2023-03-21T01:04:29.974Z,4.04
2023-03-21T01:05:53.236Z,4.00
2023-03-21T01:06:56.933Z,4.03
2023-03-21T01:07:59.380Z,4.06
2023-03-21T01:09:06.131Z,4.02
2023-03-21T01:10:11.214Z,4.05
2023-03-21T01:11:18.250Z,4.00
2023-03-21T01:12:20.527Z,4.04
2023-03-21T01:13:25.288Z,4.04
2023-03-21T01:14:31.803Z,4.06
2023-03-21T01:15:40.391Z,4.02
2023-03-21T01:16:43.945Z,3.92
2023-03-21T01:17:47.218Z,3.96
2023-03-21T01:18:52.299Z,3.93
2023-03-21T01:19:57.388Z,4.00
2023-03-21T01:21:02.737Z,3.98
2023-03-21T01:22:09.479Z,4.06
2023-03-21T01:23:13.567Z,4.07
2023-03-21T01:24:16.213Z,4.07
2023-03-21T01:25:22.630Z,4.02
2023-03-21T01:26:25.583Z,4.03
2023-03-21T01:27:29.816Z,4.08
2023-03-21T01:28:36.287Z,4.10
2023-03-21T01:29:41.586Z,4.07
2023-03-21T01:30:46.112Z,4.08
2023-03-21T01:31:50.602Z,4.07
2023-03-21T01:32:53.333Z,4.02
2023-03-21T01:33:58.088Z,4.02
2023-03-21T01:35:01.258Z,4.05
2023-03-21T01:36:12.633Z,4.08
2023-03-21T01:37:10.479Z,4.10
2023-03-21T01:38:16.654Z,4.13
2023-03-21T01:39:20.525Z,4.10
2023-03-21T01:40:27.568Z,4.12
2023-03-21T01:41:43.810Z,4.09
2023-03-21T01:42:40.332Z,4.13
2023-03-21T01:43:43.095Z,4.05
2023-03-21T01:44:52.890Z,4.05
2023-03-21T01:46:07.502Z,4.05
2023-03-21T01:47:29.331Z,4.08
2023-03-21T01:48:34.970Z,4.11
2023-03-21T01:49:39.934Z,4.13
2023-03-21T01:50:49.125Z,4.15
2023-03-21T01:52:01.113Z,4.15
2023-03-21T01:53:04.837Z,4.12
2023-03-21T01:54:10.844Z,4.03
2023-03-21T01:55:16.356Z,4.04
2023-03-21T01:56:28.359Z,3.98
2023-03-21T01:57:45.198Z,3.93
2023-03-21T01:58:43.979Z,3.95
2023-03-21T02:00:08.105Z,3.95
2023-03-21T02:01:25.725Z,3.94
2023-03-21T02:02:31.989Z,3.94
2023-03-21T02:03:40.213Z,3.89
2023-03-21T02:04:49.235Z,3.92
2023-03-21T02:06:02.642Z,3.91
2023-03-21T02:07:12.533Z,3.93
2023-03-21T02:08:19.874Z,3.97
2023-03-21T02:09:29.715Z,3.93
2023-03-21T02:10:35.718Z,3.95
2023-03-21T02:11:40.142Z,3.93
2023-03-21T02:12:42.819Z,3.96
2023-03-21T02:13:47.593Z,3.96
2023-03-21T02:14:54.414Z,3.93
2023-03-21T02:16:01.581Z,3.90
2023-03-21T02:17:22.230Z,3.92
2023-03-21T02:18:32.398Z,3.98
2023-03-21T02:19:56.054Z,3.93
2023-03-21T02:21:14.703Z,3.91
2023-03-21T02:22:28.664Z,3.87
2023-03-21T02:23:37.672Z,3.88
2023-03-21T02:24:48.924Z,3.85
2023-03-21T02:26:10.095Z,3.92
2023-03-21T02:27:15.504Z,3.95
2023-03-21T02:28:20.976Z,4.04
2023-03-21T02:29:32.414Z,4.02
2023-03-21T02:30:52.020Z,4.03
2023-03-21T02:32:12.924Z,4.06
2023-03-21T02:33:07.713Z,4.05
2023-03-21T02:34:29.117Z,3.95
2023-03-21T02:35:47.169Z,3.98
2023-03-21T02:36:57.056Z,4.02
2023-03-21T02:38:01.286Z,4.02
2023-03-21T02:39:24.049Z,3.98
2023-03-21T02:40:31.579Z,3.96
2023-03-21T02:41:40.625Z,3.91
2023-03-21T02:42:54.813Z,3.83
2023-03-21T02:43:54.012Z,3.79
2023-03-21T02:45:05.873Z,3.75
2023-03-21T02:46:24.289Z,3.67
2023-03-21T02:47:31.246Z,3.65
2023-03-21T02:48:50.114Z,3.63
2023-03-21T02:49:54.988Z,3.69
2023-03-21T02:51:01.628Z,3.71
2023-03-21T02:52:15.719Z,3.65
2023-03-21T02:53:16.275Z,3.61
2023-03-21T02:54:32.584Z,3.54
2023-03-21T02:55:32.262Z,3.55
2023-03-21T02:56:38.370Z,3.53
2023-03-21T02:57:44.316Z,3.50
2023-03-21T02:58:49.545Z,3.48
2023-03-21T03:00:00.153Z,3.47
2023-03-21T03:01:02.096Z,3.50
2023-03-21T03:02:07.799Z,3.51
2023-03-21T03:03:20.758Z,3.48
2023-03-21T03:04:22.159Z,3.47
2023-03-21T03:05:30.549Z,3.48
2023-03-21T03:06:37.702Z,3.52
2023-03-21T03:07:43.942Z,3.52
2023-03-21T03:09:01.901Z,3.53
2023-03-21T03:10:09.134Z,3.56
2023-03-21T03:11:32.353Z,3.52
2023-03-21T03:12:52.871Z,3.47
2023-03-21T03:14:25.448Z,3.44
2023-03-21T03:15:23.380Z,3.38
2023-03-21T03:16:44.851Z,3.35
2023-03-21T03:18:04.966Z,3.32
2023-03-21T03:19:09.733Z,3.30
2023-03-21T03:20:16.815Z,3.29
2023-03-21T03:21:22.719Z,3.28
2023-03-21T03:22:29.128Z,3.24
2023-03-21T03:23:33.783Z,3.24
2023-03-21T03:24:45.432Z,3.24
2023-03-21T03:25:51.125Z,3.27
2023-03-21T03:26:56.298Z,3.21
2023-03-21T03:28:05.270Z,3.19
2023-03-21T03:29:11.508Z,3.22
2023-03-21T03:30:15.758Z,3.18
2023-03-21T03:31:26.052Z,3.16
2023-03-21T03:32:45.265Z,3.22
2023-03-21T03:33:51.890Z,3.21
2023-03-21T03:34:58.864Z,3.20
2023-03-21T03:36:09.285Z,3.20
2023-03-21T03:37:17.982Z,3.20
2023-03-21T03:38:23.566Z,3.20
2023-03-21T03:39:29.264Z,3.17
2023-03-21T03:40:38.661Z,3.16
2023-03-21T03:42:07.758Z,3.17
2023-03-21T03:42:55.159Z,3.17
2023-03-21T03:44:04.750Z,3.17
2023-03-21T03:45:11.943Z,3.19
2023-03-21T03:46:17.690Z,3.21
2023-03-21T03:47:32.925Z,3.18
2023-03-21T03:48:32.956Z,3.15
2023-03-21T03:49:41.345Z,3.15
2023-03-21T03:50:50.875Z,3.18
2023-03-21T03:52:03.611Z,3.18
2023-03-21T03:53:18.901Z,3.18
2023-03-21T03:54:28.925Z,3.19
2023-03-21T03:55:35.909Z,3.23
2023-03-21T03:56:42.395Z,3.21
2023-03-21T03:57:44.894Z,3.24
2023-03-21T03:58:48.764Z,3.24
2023-03-21T03:59:54.338Z,3.14
2023-03-21T04:00:58.758Z,3.22
2023-03-21T04:02:02.145Z,3.22
2023-03-21T04:03:14.934Z,3.21
2023-03-21T04:04:19.041Z,3.23
2023-03-21T04:05:25.878Z,3.24
2023-03-21T04:06:30.435Z,3.30
2023-03-21T04:07:34.765Z,3.32
2023-03-21T04:08:39.011Z,3.30
2023-03-21T04:09:45.084Z,3.24
2023-03-21T04:10:49.348Z,3.29
2023-03-21T04:11:52.873Z,3.36
2023-03-21T04:12:57.451Z,3.38
2023-03-21T04:14:05.190Z,3.36
2023-03-21T04:15:11.978Z,3.36
2023-03-21T04:16:20.343Z,3.37
2023-03-21T04:17:25.535Z,3.37
2023-03-21T04:18:28.936Z,3.36
2023-03-21T04:19:34.041Z,3.35
2023-03-21T04:20:37.650Z,3.33
2023-03-21T04:21:41.616Z,3.29
2023-03-21T04:22:45.242Z,3.23
2023-03-21T04:23:50.535Z,3.24
2023-03-21T04:24:55.633Z,3.27
2023-03-21T04:25:58.189Z,3.29
2023-03-21T04:27:08.113Z,3.31
2023-03-21T04:28:13.641Z,3.33
2023-03-21T04:29:21.433Z,3.38
2023-03-21T04:30:29.738Z,3.45
2023-03-21T04:31:43.752Z,3.50
2023-03-21T04:32:51.215Z,3.54
2023-03-21T04:33:56.548Z,3.63
2023-03-21T04:35:01.523Z,3.67
2023-03-21T04:36:07.391Z,3.84
2023-03-21T04:37:11.648Z,4.10
2023-03-21T04:38:15.620Z,4.50
2023-03-21T04:39:20.445Z,4.89
2023-03-21T04:40:29.097Z,5.21
2023-03-21T04:41:32.780Z,5.51
2023-03-21T04:42:38.791Z,5.56
2023-03-21T04:43:42.609Z,5.38
2023-03-21T04:44:48.744Z,5.26
2023-03-21T04:45:51.605Z,5.08
2023-03-21T04:46:54.264Z,5.09
2023-03-21T04:47:59.623Z,5.13
2023-03-21T04:49:03.686Z,5.25
2023-03-21T04:50:07.631Z,5.30
2023-03-21T04:51:11.102Z,5.40
2023-03-21T04:52:14.931Z,5.50
2023-03-21T04:53:18.777Z,5.53
2023-03-21T04:54:22.469Z,5.43
2023-03-21T04:55:27.496Z,5.42
2023-03-21T04:56:34.259Z,5.41
2023-03-21T04:57:39.144Z,5.47
2023-03-21T04:58:42.762Z,5.80
2023-03-21T04:59:46.774Z,6.47
2023-03-21T05:00:53.153Z,7.32
2023-03-21T05:01:59.868Z,8.01
2023-03-21T05:03:04.705Z,8.60
2023-03-21T05:04:08.322Z,9.23
2023-03-21T05:05:14.956Z,9.64
2023-03-21T05:06:17.829Z,9.99
2023-03-21T05:07:22.265Z,10.21
2023-03-21T05:08:25.903Z,10.38
2023-03-21T05:09:29.912Z,10.45
2023-03-21T05:10:35.086Z,10.38
2023-03-21T05:11:39.337Z,10.41
2023-03-21T05:12:42.768Z,10.31
2023-03-21T05:13:46.757Z,10.28
2023-03-21T05:14:52.141Z,10.79
2023-03-21T05:15:57.834Z,11.10
2023-03-21T05:17:03.038Z,11.15
2023-03-21T05:18:11.018Z,11.01
2023-03-21T05:19:21.210Z,10.82
2023-03-21T05:20:25.645Z,11.12
2023-03-21T05:21:33.446Z,11.24
2023-03-21T05:22:39.516Z,11.38
2023-03-21T05:23:44.399Z,11.53
2023-03-21T05:24:50.114Z,11.80
2023-03-21T05:25:57.998Z,12.08
2023-03-21T05:27:17.009Z,11.86
2023-03-21T05:28:21.407Z,11.59
2023-03-21T05:29:25.845Z,11.60
2023-03-21T05:30:31.127Z,11.49
2023-03-21T05:31:36.308Z,11.42
2023-03-21T05:32:41.611Z,11.34
2023-03-21T05:33:49.169Z,11.13
2023-03-21T05:34:54.228Z,10.46
2023-03-21T05:35:58.742Z,10.38
2023-03-21T05:37:03.045Z,10.65
2023-03-21T05:38:13.203Z,10.91
2023-03-21T05:39:22.152Z,11.02
2023-03-21T05:40:32.016Z,10.69
2023-03-21T05:41:35.941Z,9.93
2023-03-21T05:42:40.604Z,9.70
2023-03-21T05:43:49.831Z,9.89
2023-03-21T05:44:52.096Z,9.73
2023-03-21T05:45:58.773Z,9.31
2023-03-21T05:47:07.153Z,9.17
2023-03-21T05:48:17.200Z,9.28
2023-03-21T05:49:32.342Z,9.86
2023-03-21T05:50:37.226Z,9.72
2023-03-21T05:51:41.963Z,9.81
2023-03-21T05:52:46.007Z,9.78
2023-03-21T05:53:49.390Z,9.94
2023-03-21T05:54:53.001Z,9.79
2023-03-21T05:55:58.113Z,10.20
2023-03-21T05:57:06.800Z,10.63
2023-03-21T05:58:19.902Z,10.88
2023-03-21T05:59:25.719Z,10.81
2023-03-21T06:00:32.886Z,10.99
2023-03-21T06:01:40.873Z,11.14
2023-03-21T06:02:45.251Z,11.38
2023-03-21T06:03:53.343Z,11.72
2023-03-21T06:05:06.438Z,12.31
2023-03-21T06:06:10.977Z,12.79
2023-03-21T06:07:15.207Z,13.15
2023-03-21T06:08:21.992Z,13.55
2023-03-21T06:09:26.513Z,13.88
2023-03-21T06:10:32.030Z,14.24
2023-03-21T06:11:39.159Z,14.76
2023-03-21T06:12:50.183Z,15.21
2023-03-21T06:14:03.612Z,15.07
2023-03-21T06:15:09.391Z,15.09
2023-03-21T06:16:14.686Z,14.57
2023-03-21T06:17:18.297Z,14.38
2023-03-21T06:18:29.534Z,14.26
2023-03-21T06:19:34.599Z,14.27
2023-03-21T06:20:39.765Z,14.32
2023-03-21T06:21:44.030Z,13.88
2023-03-21T06:22:47.636Z,14.43
2023-03-21T06:23:52.390Z,15.04
2023-03-21T06:24:55.894Z,15.30
2023-03-21T06:25:58.355Z,15.82
2023-03-21T06:27:04.093Z,16.18
2023-03-21T06:28:10.071Z,16.74
2023-03-21T06:29:15.869Z,16.27
2023-03-21T06:30:21.764Z,15.53
2023-03-21T06:31:38.833Z,15.39
2023-03-21T06:32:43.448Z,15.44
2023-03-21T06:33:49.419Z,14.99
2023-03-21T06:34:55.437Z,13.73
2023-03-21T06:35:59.249Z,12.78
2023-03-21T06:37:05.518Z,12.07
2023-03-21T06:38:09.941Z,12.18
2023-03-21T06:39:15.091Z,12.64
2023-03-21T06:40:19.543Z,13.80
2023-03-21T06:41:24.077Z,14.91
2023-03-21T06:42:31.835Z,14.79
2023-03-21T06:43:40.318Z,13.97
2023-03-21T06:44:45.567Z,13.80
2023-03-21T06:45:50.957Z,13.43
2023-03-21T06:46:55.026Z,13.02
2023-03-21T06:48:01.155Z,13.44
2023-03-21T06:49:09.542Z,14.34
2023-03-21T06:50:12.584Z,14.19
2023-03-21T06:51:17.986Z,14.27
2023-03-21T06:52:25.877Z,14.01
2023-03-21T06:53:30.526Z,13.10
2023-03-21T06:54:54.601Z,12.99
2023-03-21T06:55:58.089Z,13.09
2023-03-21T06:57:02.669Z,13.31
2023-03-21T06:58:07.948Z,13.03
2023-03-21T06:59:13.555Z,13.74
2023-03-21T07:00:19.445Z,15.16
2023-03-21T07:01:23.054Z,16.70
2023-03-21T07:02:29.531Z,17.65
2023-03-21T07:03:43.257Z,18.67
2023-03-21T07:04:46.211Z,19.57
2023-03-21T07:05:51.592Z,20.12
2023-03-21T07:06:55.412Z,20.14
2023-03-21T07:07:58.496Z,21.31
2023-03-21T07:09:05.981Z,21.73
2023-03-21T07:10:10.113Z,22.59
2023-03-21T07:11:21.548Z,22.29
2023-03-21T07:12:25.595Z,22.13
2023-03-21T07:13:43.175Z,22.63
2023-03-21T07:14:45.456Z,23.00
2023-03-21T07:15:47.987Z,23.09
2023-03-21T07:16:51.941Z,23.32
2023-03-21T07:17:55.177Z,22.85
2023-03-21T07:18:58.223Z,22.91
2023-03-21T07:20:01.589Z,22.87
2023-03-21T07:21:07.079Z,22.99
2023-03-21T07:22:10.531Z,22.83
2023-03-21T07:23:13.669Z,23.14
2023-03-21T07:24:17.292Z,23.26
2023-03-21T07:25:22.441Z,22.87
2023-03-21T07:26:26.186Z,23.80
2023-03-21T07:27:29.476Z,23.62
2023-03-21T07:28:35.129Z,23.19
2023-03-21T07:29:38.472Z,24.38
2023-03-21T07:30:42.590Z,24.81
2023-03-21T07:31:46.387Z,24.35
2023-03-21T07:32:51.296Z,24.86
2023-03-21T07:33:54.999Z,24.67
2023-03-21T07:35:01.299Z,25.03
2023-03-21T07:36:04.172Z,25.10
2023-03-21T07:37:06.767Z,25.29
2023-03-21T07:38:10.948Z,25.06
2023-03-21T07:39:19.137Z,25.69
2023-03-21T07:40:22.462Z,24.99
2023-03-21T07:41:27.898Z,25.39
2023-03-21T07:42:35.368Z,25.06
2023-03-21T07:43:39.476Z,25.05
2023-03-21T07:44:46.473Z,25.56
2023-03-21T07:45:50.831Z,25.82
2023-03-21T07:46:56.084Z,25.35
2023-03-21T07:48:00.023Z,25.30
2023-03-21T07:49:03.388Z,25.01
2023-03-21T07:50:08.021Z,24.27
2023-03-21T07:51:11.681Z,24.79
2023-03-21T07:52:13.893Z,24.72
2023-03-21T07:53:17.054Z,25.08
2023-03-21T07:54:23.242Z,24.86
2023-03-21T07:55:26.939Z,25.18
2023-03-21T07:56:31.370Z,25.44
2023-03-21T07:57:38.862Z,25.41
2023-03-21T07:58:43.104Z,25.01
2023-03-21T07:59:50.977Z,25.54
2023-03-21T08:00:53.745Z,25.04
2023-03-21T08:01:57.507Z,24.46
2023-03-21T08:03:01.848Z,24.87
2023-03-21T08:04:05.511Z,25.70
2023-03-21T08:05:11.546Z,25.67
2023-03-21T08:06:17.943Z,25.36
2023-03-21T08:07:22.711Z,25.50
2023-03-21T08:08:26.426Z,25.66
2023-03-21T08:09:31.242Z,25.81
2023-03-21T08:10:35.420Z,25.96
2023-03-21T08:11:40.985Z,25.68
2023-03-21T08:12:45.760Z,25.31
2023-03-21T08:13:49.382Z,25.11
2023-03-21T08:14:53.820Z,25.92
2023-03-21T08:15:57.649Z,25.59
2023-03-21T08:17:01.622Z,25.89
2023-03-21T08:18:04.764Z,26.33
2023-03-21T08:19:09.100Z,26.62
2023-03-21T08:20:17.493Z,26.16
2023-03-21T08:21:23.945Z,25.73
2023-03-21T08:22:29.054Z,25.62
2023-03-21T08:23:33.348Z,25.49
2023-03-21T08:24:36.579Z,24.18
2023-03-21T08:25:39.738Z,24.38
2023-03-21T08:26:44.277Z,24.98
2023-03-21T08:27:48.727Z,24.54
2023-03-21T08:28:52.449Z,24.39
2023-03-21T08:29:55.428Z,24.75
2023-03-21T08:30:58.972Z,24.75
2023-03-21T08:32:02.327Z,24.41
2023-03-21T08:33:05.635Z,23.69
2023-03-21T08:34:10.069Z,23.56
2023-03-21T08:35:15.806Z,23.35
2023-03-21T08:36:18.276Z,22.44
2023-03-21T08:37:21.625Z,22.70
2023-03-21T08:38:26.526Z,22.70
2023-03-21T08:39:28.881Z,22.43
2023-03-21T08:40:32.262Z,21.60
2023-03-21T08:41:36.807Z,21.42
2023-03-21T08:42:40.417Z,21.46
2023-03-21T08:43:43.713Z,21.35
2023-03-21T08:44:50.338Z,21.12
2023-03-21T08:45:53.665Z,20.62
2023-03-21T08:46:57.149Z,20.53
2023-03-21T08:48:00.687Z,20.83
2023-03-21T08:49:05.943Z,20.75
2023-03-21T08:50:11.175Z,20.75
2023-03-21T08:51:14.616Z,20.31
2023-03-21T08:52:17.608Z,19.96
2023-03-21T08:53:20.438Z,20.36
2023-03-21T08:54:24.193Z,20.18
2023-03-21T08:55:27.894Z,20.15
2023-03-21T08:56:36.295Z,19.86
2023-03-21T08:57:41.347Z,19.90
2023-03-21T08:58:45.421Z,20.24
2023-03-21T08:59:48.633Z,20.00
2023-03-21T09:00:52.850Z,20.03
2023-03-21T09:01:56.485Z,19.91
2023-03-21T09:03:03.834Z,19.89
2023-03-21T09:04:09.371Z,19.71
2023-03-21T09:05:13.573Z,19.34
2023-03-21T09:06:17.250Z,19.50
2023-03-21T09:07:22.210Z,19.72
2023-03-21T09:08:25.566Z,19.32
2023-03-21T09:09:28.720Z,19.05
2023-03-21T09:10:32.385Z,19.15
2023-03-21T09:11:36.906Z,19.23
2023-03-21T09:12:40.673Z,18.89
2023-03-21T09:13:43.786Z,19.07
2023-03-21T09:14:46.965Z,19.20
2023-03-21T09:15:51.122Z,19.39
2023-03-21T09:16:55.034Z,19.41
2023-03-21T09:17:59.400Z,19.56
2023-03-21T09:19:04.704Z,19.49
2023-03-21T09:20:10.776Z,19.38
2023-03-21T09:21:16.175Z,19.47
2023-03-21T09:22:21.272Z,19.33
2023-03-21T09:23:26.290Z,19.76
2023-03-21T09:24:29.999Z,19.73
2023-03-21T09:25:35.452Z,19.51
2023-03-21T09:26:39.216Z,19.09
2023-03-21T09:27:43.778Z,18.84
2023-03-21T09:28:47.064Z,19.26
2023-03-21T09:29:52.416Z,19.36
2023-03-21T09:30:58.722Z,18.86
2023-03-21T09:32:01.338Z,18.94
2023-03-21T09:33:09.085Z,18.94
2023-03-21T09:34:16.759Z,18.65
2023-03-21T09:35:20.523Z,18.78
2023-03-21T09:36:25.142Z,18.76
2023-03-21T09:37:28.574Z,19.01
2023-03-21T09:38:36.699Z,19.17
2023-03-21T09:39:41.444Z,19.41
2023-03-21T09:40:56.827Z,19.20
2023-03-21T09:42:05.156Z,19.04
2023-03-21T09:43:10.642Z,18.88
2023-03-21T09:44:33.992Z,19.20
2023-03-21T09:46:53.281Z,18.93
2023-03-21T09:47:57.464Z,19.00
2023-03-21T09:49:06.418Z,18.77
2023-03-21T09:50:16.463Z,18.96
2023-03-21T09:51:19.311Z,18.74
2023-03-21T09:52:28.171Z,19.05
2023-03-21T09:53:38.335Z,19.46
2023-03-21T09:54:44.496Z,19.02
2023-03-21T09:55:49.159Z,19.17
2023-03-21T09:56:54.668Z,19.19
2023-03-21T09:58:03.462Z,19.02
2023-03-21T09:59:09.797Z,18.95
2023-03-21T10:00:18.006Z,18.99
2023-03-21T10:01:29.131Z,19.22
2023-03-21T10:02:40.164Z,18.96
2023-03-21T10:03:44.602Z,19.03
2023-03-21T10:04:48.122Z,18.93
2023-03-21T10:05:53.698Z,18.81
2023-03-21T10:07:00.124Z,18.86
2023-03-21T10:08:06.245Z,18.78
2023-03-21T10:09:17.789Z,19.03
2023-03-21T10:10:26.400Z,19.03
2023-03-21T10:11:31.911Z,19.04
2023-03-21T10:12:35.847Z,19.04
2023-03-21T10:13:43.293Z,19.06
2023-03-21T10:14:48.674Z,19.18
2023-03-21T10:16:00.034Z,19.40
2023-03-21T10:17:16.380Z,19.42
2023-03-21T10:18:22.701Z,19.18
2023-03-21T10:19:29.611Z,18.70
2023-03-21T10:20:35.446Z,18.28
2023-03-21T10:22:00.329Z,18.26
2023-03-21T10:22:49.037Z,18.63
2023-03-21T10:23:54.221Z,18.58
2023-03-21T10:24:57.725Z,18.94
2023-03-21T10:26:05.930Z,19.22
2023-03-21T10:27:12.321Z,19.56
2023-03-21T10:28:17.302Z,19.41
2023-03-21T10:29:24.134Z,19.10
2023-03-21T10:30:33.044Z,18.89
2023-03-21T10:31:39.672Z,19.09
2023-03-21T10:32:43.142Z,19.22
2023-03-21T10:33:49.900Z,19.50
2023-03-21T10:36:00.769Z,18.94
2023-03-21T10:37:05.736Z,18.74
2023-03-21T10:38:10.393Z,18.82
2023-03-21T10:39:14.518Z,18.79
2023-03-21T10:40:18.755Z,18.73
2023-03-21T10:41:22.201Z,18.93
2023-03-21T10:42:27.019Z,18.90
2023-03-21T10:43:33.075Z,18.88
2023-03-21T10:44:38.410Z,18.95
2023-03-21T10:45:41.828Z,19.01
2023-03-21T10:46:53.210Z,18.87
2023-03-21T10:47:58.794Z,18.86
2023-03-21T10:49:03.285Z,19.02
2023-03-21T10:50:09.019Z,19.13
2023-03-21T10:51:13.974Z,19.24
2023-03-21T10:52:19.567Z,19.32
2023-03-21T10:53:25.729Z,19.20
2023-03-21T10:54:30.645Z,19.20
2023-03-21T10:55:35.850Z,19.35
2023-03-21T10:56:42.237Z,19.41
2023-03-21T10:57:46.428Z,19.04
2023-03-21T10:58:50.602Z,19.07
2023-03-21T10:59:56.316Z,18.94
2023-03-21T11:01:02.117Z,18.73
2023-03-21T11:02:06.522Z,18.85
2023-03-21T11:03:22.816Z,19.00
2023-03-21T11:04:29.246Z,19.02
2023-03-21T11:05:37.373Z,18.77
2023-03-21T11:06:42.601Z,18.72
2023-03-21T11:07:45.589Z,18.50
2023-03-21T11:08:50.758Z,18.40
2023-03-21T11:09:55.735Z,18.17
2023-03-21T11:11:08.640Z,18.19
2023-03-21T11:12:14.358Z,18.35
2023-03-21T11:13:18.684Z,18.43
2023-03-21T11:14:26.363Z,18.67
2023-03-21T11:15:30.858Z,18.61
2023-03-21T11:16:42.514Z,18.81
2023-03-21T11:17:46.402Z,18.44
2023-03-21T11:18:51.708Z,18.41
2023-03-21T11:19:56.847Z,18.59
2023-03-21T11:21:01.188Z,18.67
2023-03-21T11:22:07.730Z,18.67
2023-03-21T11:23:13.019Z,18.41
2023-03-21T11:24:19.961Z,18.36
2023-03-21T11:25:26.603Z,18.57
2023-03-21T11:26:37.403Z,18.69
2023-03-21T11:27:42.580Z,18.76
2023-03-21T11:28:50.729Z,18.77
2023-03-21T11:29:57.437Z,18.31
2023-03-21T11:31:04.187Z,18.39
2023-03-21T11:32:09.463Z,18.31
2023-03-21T11:33:12.955Z,18.39
2023-03-21T11:34:17.037Z,18.45
2023-03-21T11:35:25.853Z,18.50
2023-03-21T11:36:30.293Z,18.38
2023-03-21T11:37:35.155Z,18.52
2023-03-21T11:38:39.058Z,18.58
2023-03-21T11:39:44.406Z,18.67
2023-03-21T11:40:48.559Z,18.77
2023-03-21T11:41:52.497Z,18.53
2023-03-21T11:43:00.494Z,18.44
2023-03-21T11:44:05.353Z,18.04
2023-03-21T11:45:14.100Z,18.22
2023-03-21T11:46:17.352Z,18.17
2023-03-21T11:47:25.170Z,18.09
2023-03-21T11:48:29.056Z,18.10
2023-03-21T11:49:31.745Z,18.26
2023-03-21T11:50:36.748Z,18.22
2023-03-21T11:51:41.995Z,18.18
2023-03-21T11:52:52.911Z,17.77
2023-03-21T11:53:58.102Z,17.73
2023-03-21T11:55:13.363Z,18.00
2023-03-21T11:56:18.807Z,18.19
2023-03-21T11:57:26.361Z,18.35
2023-03-21T11:58:37.576Z,18.18
2023-03-21T11:59:46.637Z,18.42
2023-03-21T12:01:01.767Z,18.48
2023-03-21T12:02:09.710Z,18.50
2023-03-21T12:03:16.747Z,18.52
2023-03-21T12:04:37.377Z,18.43
2023-03-21T12:05:45.121Z,18.63
2023-03-21T12:06:54.180Z,18.74
2023-03-21T12:08:11.972Z,18.83
2023-03-21T12:09:19.953Z,18.66
2023-03-21T12:10:35.391Z,18.21
2023-03-21T12:11:40.057Z,18.24
2023-03-21T12:14:19.423Z,19.04
2023-03-21T12:15:25.565Z,18.82
2023-03-21T12:16:37.182Z,18.92
2023-03-21T12:17:44.829Z,18.94
2023-03-21T12:18:52.084Z,19.26
2023-03-21T12:20:02.752Z,19.50
2023-03-21T12:21:07.716Z,19.48
2023-03-21T12:22:16.240Z,19.53
2023-03-21T12:23:33.644Z,19.56
2023-03-21T12:25:58.598Z,19.55
2023-03-21T12:27:14.454Z,19.26
2023-03-21T12:28:32.154Z,19.17
2023-03-21T12:29:35.944Z,19.32
2023-03-21T12:30:41.568Z,19.29
2023-03-21T12:31:56.258Z,19.01
2023-03-21T12:33:00.582Z,18.55
2023-03-21T12:34:16.867Z,18.72
2023-03-21T12:35:22.313Z,18.67
2023-03-21T12:36:44.095Z,18.75
2023-03-21T12:38:05.084Z,18.72
2023-03-21T12:39:13.768Z,18.97
2023-03-21T12:40:31.385Z,19.03
2023-03-21T12:41:42.033Z,18.78
2023-03-21T12:42:48.523Z,18.31
2023-03-21T12:43:56.625Z,18.07
2023-03-21T12:45:06.027Z,18.08
2023-03-21T12:46:07.805Z,18.36
2023-03-21T12:47:12.861Z,18.45
2023-03-21T12:48:18.414Z,18.50
2023-03-21T12:49:22.585Z,18.49
2023-03-21T12:50:29.007Z,18.71
2023-03-21T12:51:34.628Z,18.73
2023-03-21T12:52:43.471Z,18.61
2023-03-21T12:54:03.741Z,18.51
2023-03-21T12:55:07.903Z,18.48
2023-03-21T12:56:13.293Z,18.32
2023-03-21T12:57:17.531Z,18.06
2023-03-21T12:58:24.153Z,17.83
2023-03-21T12:59:30.702Z,17.75
2023-03-21T13:00:35.423Z,17.61
2023-03-21T13:01:40.237Z,17.58
2023-03-21T13:02:51.976Z,17.59
2023-03-21T13:03:56.453Z,17.74
2023-03-21T13:05:19.249Z,17.72
2023-03-21T13:06:22.962Z,17.80
2023-03-21T13:07:27.287Z,17.95
2023-03-21T13:08:50.966Z,17.96
2023-03-21T13:09:55.875Z,17.90
2023-03-21T13:11:01.192Z,17.95
2023-03-21T13:12:07.538Z,17.90
2023-03-21T13:13:27.379Z,17.88
2023-03-21T13:14:35.897Z,17.90
2023-03-21T13:15:45.517Z,17.89
2023-03-21T13:16:51.025Z,17.91
2023-03-21T13:17:56.503Z,17.88
2023-03-21T13:19:01.685Z,17.74
2023-03-21T13:20:08.721Z,17.77
2023-03-21T13:21:13.913Z,17.72
2023-03-21T13:22:25.675Z,17.65
2023-03-21T13:23:37.459Z,17.61
2023-03-21T13:24:51.060Z,17.72
2023-03-21T13:25:57.208Z,17.64
2023-03-21T13:27:06.021Z,17.70
2023-03-21T13:28:11.377Z,17.70
2023-03-21T13:29:27.032Z,17.73
2023-03-21T13:30:32.728Z,17.70
2023-03-21T13:31:51.435Z,17.59
2023-03-21T13:32:49.254Z,17.61
2023-03-21T13:33:55.653Z,17.64
2023-03-21T13:35:05.279Z,17.70
2023-03-21T13:36:09.530Z,17.76
2023-03-21T13:37:13.781Z,17.66
2023-03-21T13:38:23.778Z,17.69
2023-03-21T13:39:27.808Z,17.66
2023-03-21T13:40:44.367Z,17.75
2023-03-21T13:41:50.364Z,17.83
2023-03-21T13:42:55.386Z,17.93
2023-03-21T13:44:05.885Z,17.90
2023-03-21T13:45:11.546Z,17.83
2023-03-21T13:46:16.596Z,17.69
2023-03-21T13:47:25.765Z,17.58
2023-03-21T13:48:30.626Z,17.66
2023-03-21T13:49:36.843Z,17.62
2023-03-21T13:50:45.261Z,17.79
2023-03-21T13:51:54.161Z,17.90
2023-03-21T13:53:14.624Z,17.87
2023-03-21T13:54:22.306Z,17.81
2023-03-21T13:55:27.416Z,17.88
2023-03-21T13:56:50.726Z,17.90
2023-03-21T13:57:53.293Z,17.95
2023-03-21T13:58:59.529Z,17.82
2023-03-21T14:00:20.464Z,17.80
2023-03-21T14:01:36.152Z,17.81
2023-03-21T14:02:42.726Z,17.84
2023-03-21T14:03:48.658Z,17.76
2023-03-21T14:05:06.635Z,17.78
2023-03-21T14:06:07.818Z,17.78
2023-03-21T14:07:14.842Z,17.76
2023-03-21T14:08:34.724Z,17.80
2023-03-21T14:09:31.924Z,17.86
2023-03-21T14:10:39.755Z,17.70
2023-03-21T14:11:46.777Z,17.64
2023-03-21T14:12:49.881Z,17.55
2023-03-21T14:13:53.732Z,17.55
2023-03-21T14:15:15.749Z,17.58
2023-03-21T14:16:17.685Z,17.55
2023-03-21T14:17:24.059Z,17.75
2023-03-21T14:18:48.087Z,17.85
2023-03-21T14:19:36.610Z,17.89
2023-03-21T14:20:41.574Z,17.89
2023-03-21T14:21:52.104Z,17.91
2023-03-21T14:22:55.994Z,17.88
2023-03-21T14:24:00.336Z,17.84
2023-03-21T14:25:05.412Z,17.70
2023-03-21T14:26:11.738Z,17.56
2023-03-21T14:27:15.977Z,17.44
2023-03-21T14:28:24.594Z,17.47
2023-03-21T14:29:33.378Z,17.39
2023-03-21T14:30:41.521Z,17.22
2023-03-21T14:31:46.390Z,17.11
2023-03-21T14:32:49.638Z,17.00
2023-03-21T14:33:54.759Z,16.82
2023-03-21T14:34:58.996Z,16.84